PATK/TKA METAR and TAF weather

Enter ICAO airport designator
Station Type Date Time Source
PATK METAR 2019/02/18 03:53 UTC NOAA

PATK 180353Z AUTO 02005KT 1SM -SN BR VV014 M04/M06 A2980 RMK AO2 SLP099 P0005 T10391056 TSNO


Station Type Date Time Source
PATK Decoded METAR 2019/02/18 03:53 UTC NOAA

TALKEETNA AIRPORT, AK, United States (PATK) 62-19N 150-06W 109M
Feb 17, 2019 - 10:53 PM EST / 2019.02.18 0353 UTC
Wind: from the NNE (020 degrees) at 6 MPH (5 KT):0
Visibility: 1 mile(s):0
Sky conditions: obscured
Weather: light snow; mist
Precipitation last hour: 0.05 inches
Temperature: 25.0 F (-3.9 C)
Windchill: 17 F (-8 C):1
Dew Point: 21.9 F (-5.6 C)
Relative Humidity: 87%
Pressure (altimeter): 29.8 in. Hg (1009 hPa)
ob: PATK 180353Z AUTO 02005KT 1SM -SN BR VV014 M04/M06 A2980 RMK AO2 SLP099 P0005 T10391056 TSNO
cycle: 4

Station Type Date Time Source
PATK TAF 2019/02/18 04:06 UTC NOAA

TAF
AMD PATK 180404Z 1804/1824 02006KT 1SM -SN OVC015
FM180600 VRB03KT 5SM -SN OVC025
FM181200 VRB03KT P6SM VCSH BKN025
FM181800 VRB03KT 4SM -SN OVC012


Example: see airport list